sensor_id;sensor_type;location;lat;lon;timestamp;P1;durP1;ratioP1;P2;durP2;ratioP2
71172;SDS011;58875;51.996;4.504;2023-08-06T00:00:24;9.39;;;9.39;;
71172;SDS011;58875;51.996;4.504;2023-08-06T00:02:50;9.34;;;9.34;;
71172;SDS011;58875;51.996;4.504;2023-08-06T00:05:15;9.24;;;9.24;;
71172;SDS011;58875;51.996;4.504;2023-08-06T00:07:49;8.97;;;8.97;;
71172;SDS011;58875;51.996;4.504;2023-08-06T00:10:16;9.07;;;9.07;;
71172;SDS011;58875;51.996;4.504;2023-08-06T00:12:42;9.10;;;9.10;;
71172;SDS011;58875;51.996;4.504;2023-08-06T00:15:09;9.11;;;9.11;;
71172;SDS011;58875;51.996;4.504;2023-08-06T00:17:36;9.53;;;9.37;;
71172;SDS011;58875;51.996;4.504;2023-08-06T00:20:02;9.06;;;9.04;;
71172;SDS011;58875;51.996;4.504;2023-08-06T00:22:32;9.44;;;9.44;;
71172;SDS011;58875;51.996;4.504;2023-08-06T00:24:59;9.38;;;9.38;;
71172;SDS011;58875;51.996;4.504;2023-08-06T00:27:24;9.27;;;9.27;;
71172;SDS011;58875;51.996;4.504;2023-08-06T00:29:50;9.07;;;9.07;;
71172;SDS011;58875;51.996;4.504;2023-08-06T00:32:16;9.38;;;9.38;;
71172;SDS011;58875;51.996;4.504;2023-08-06T00:34:42;9.36;;;9.36;;
71172;SDS011;58875;51.996;4.504;2023-08-06T00:37:07;9.30;;;9.30;;
71172;SDS011;58875;51.996;4.504;2023-08-06T00:39:33;9.46;;;9.45;;
71172;SDS011;58875;51.996;4.504;2023-08-06T00:41:58;9.16;;;9.15;;
71172;SDS011;58875;51.996;4.504;2023-08-06T00:44:24;9.23;;;9.22;;
71172;SDS011;58875;51.996;4.504;2023-08-06T00:46:49;9.60;;;9.50;;
71172;SDS011;58875;51.996;4.504;2023-08-06T00:49:15;9.46;;;9.46;;
71172;SDS011;58875;51.996;4.504;2023-08-06T00:51:41;9.59;;;9.59;;
71172;SDS011;58875;51.996;4.504;2023-08-06T00:54:08;9.64;;;9.64;;
71172;SDS011;58875;51.996;4.504;2023-08-06T00:56:35;9.62;;;9.62;;
71172;SDS011;58875;51.996;4.504;2023-08-06T00:59:03;9.09;;;9.09;;
71172;SDS011;58875;51.996;4.504;2023-08-06T01:01:30;8.95;;;8.95;;
71172;SDS011;58875;51.996;4.504;2023-08-06T01:03:56;9.07;;;9.07;;
71172;SDS011;58875;51.996;4.504;2023-08-06T01:06:27;8.72;;;8.72;;
71172;SDS011;58875;51.996;4.504;2023-08-06T01:09:19;8.87;;;8.87;;
71172;SDS011;58875;51.996;4.504;2023-08-06T01:15:29;8.89;;;8.89;;
71172;SDS011;58875;51.996;4.504;2023-08-06T01:17:48;9.44;;;9.44;;
71172;SDS011;58875;51.996;4.504;2023-08-06T01:20:15;9.22;;;9.22;;
71172;SDS011;58875;51.996;4.504;2023-08-06T01:22:40;8.98;;;8.98;;
71172;SDS011;58875;51.996;4.504;2023-08-06T01:25:06;9.17;;;9.17;;
71172;SDS011;58875;51.996;4.504;2023-08-06T01:27:43;9.13;;;9.13;;
71172;SDS011;58875;51.996;4.504;2023-08-06T01:30:16;9.60;;;9.60;;
71172;SDS011;58875;51.996;4.504;2023-08-06T01:32:58;9.31;;;9.31;;
71172;SDS011;58875;51.996;4.504;2023-08-06T01:35:27;9.62;;;9.61;;
71172;SDS011;58875;51.996;4.504;2023-08-06T01:37:54;9.46;;;9.46;;
71172;SDS011;58875;51.996;4.504;2023-08-06T01:40:21;9.48;;;9.48;;
71172;SDS011;58875;51.996;4.504;2023-08-06T01:42:47;9.80;;;9.80;;
71172;SDS011;58875;51.996;4.504;2023-08-06T01:45:12;9.46;;;9.46;;
71172;SDS011;58875;51.996;4.504;2023-08-06T01:47:39;9.64;;;9.64;;
71172;SDS011;58875;51.996;4.504;2023-08-06T01:50:04;9.45;;;9.45;;
71172;SDS011;58875;51.996;4.504;2023-08-06T01:52:30;9.56;;;9.56;;
71172;SDS011;58875;51.996;4.504;2023-08-06T01:54:56;9.63;;;9.63;;
71172;SDS011;58875;51.996;4.504;2023-08-06T01:57:21;9.86;;;9.86;;
71172;SDS011;58875;51.996;4.504;2023-08-06T01:59:47;9.29;;;9.29;;
71172;SDS011;58875;51.996;4.504;2023-08-06T02:02:12;9.79;;;9.79;;
71172;SDS011;58875;51.996;4.504;2023-08-06T02:04:38;9.69;;;9.69;;
71172;SDS011;58875;51.996;4.504;2023-08-06T02:07:03;10.01;;;10.01;;
71172;SDS011;58875;51.996;4.504;2023-08-06T02:09:29;10.32;;;10.29;;
71172;SDS011;58875;51.996;4.504;2023-08-06T02:11:55;10.78;;;10.59;;
71172;SDS011;58875;51.996;4.504;2023-08-06T02:14:20;10.48;;;10.39;;
71172;SDS011;58875;51.996;4.504;2023-08-06T02:16:45;10.80;;;10.64;;
71172;SDS011;58875;51.996;4.504;2023-08-06T02:19:11;10.41;;;10.41;;
71172;SDS011;58875;51.996;4.504;2023-08-06T02:21:36;10.19;;;10.15;;
71172;SDS011;58875;51.996;4.504;2023-08-06T02:24:02;10.30;;;10.30;;
71172;SDS011;58875;51.996;4.504;2023-08-06T02:26:28;10.02;;;10.02;;
71172;SDS011;58875;51.996;4.504;2023-08-06T02:28:53;9.77;;;9.77;;
71172;SDS011;58875;51.996;4.504;2023-08-06T02:31:19;9.61;;;9.61;;
71172;SDS011;58875;51.996;4.504;2023-08-06T02:33:44;9.45;;;9.43;;
71172;SDS011;58875;51.996;4.504;2023-08-06T02:36:10;9.04;;;9.04;;
71172;SDS011;58875;51.996;4.504;2023-08-06T02:38:35;7.63;;;7.63;;
71172;SDS011;58875;51.996;4.504;2023-08-06T02:41:04;6.73;;;6.73;;
71172;SDS011;58875;51.996;4.504;2023-08-06T02:43:30;5.66;;;5.66;;
71172;SDS011;58875;51.996;4.504;2023-08-06T02:46:01;4.71;;;4.71;;
71172;SDS011;58875;51.996;4.504;2023-08-06T02:48:27;4.45;;;4.45;;
71172;SDS011;58875;51.996;4.504;2023-08-06T02:50:52;3.87;;;3.87;;
71172;SDS011;58875;51.996;4.504;2023-08-06T02:53:18;3.45;;;3.45;;
71172;SDS011;58875;51.996;4.504;2023-08-06T02:55:47;3.41;;;3.41;;
71172;SDS011;58875;51.996;4.504;2023-08-06T02:58:13;3.43;;;3.43;;
71172;SDS011;58875;51.996;4.504;2023-08-06T03:00:42;3.23;;;3.23;;
71172;SDS011;58875;51.996;4.504;2023-08-06T03:03:09;2.51;;;2.51;;
71172;SDS011;58875;51.996;4.504;2023-08-06T03:05:35;2.07;;;2.07;;
71172;SDS011;58875;51.996;4.504;2023-08-06T03:08:00;1.40;;;1.40;;
71172;SDS011;58875;51.996;4.504;2023-08-06T03:10:26;1.02;;;1.02;;
71172;SDS011;58875;51.996;4.504;2023-08-06T03:12:52;1.07;;;1.07;;
71172;SDS011;58875;51.996;4.504;2023-08-06T03:15:17;1.16;;;1.16;;
71172;SDS011;58875;51.996;4.504;2023-08-06T03:17:43;1.37;;;1.37;;
71172;SDS011;58875;51.996;4.504;2023-08-06T03:20:09;1.44;;;1.44;;
71172;SDS011;58875;51.996;4.504;2023-08-06T03:22:35;1.67;;;1.67;;
71172;SDS011;58875;51.996;4.504;2023-08-06T03:25:01;1.74;;;1.74;;
71172;SDS011;58875;51.996;4.504;2023-08-06T03:27:26;1.73;;;1.73;;
71172;SDS011;58875;51.996;4.504;2023-08-06T03:29:52;1.82;;;1.82;;
71172;SDS011;58875;51.996;4.504;2023-08-06T03:32:17;2.06;;;2.06;;
71172;SDS011;58875;51.996;4.504;2023-08-06T03:34:43;2.57;;;2.57;;
71172;SDS011;58875;51.996;4.504;2023-08-06T03:37:08;2.96;;;2.96;;
71172;SDS011;58875;51.996;4.504;2023-08-06T03:39:34;3.78;;;3.78;;
71172;SDS011;58875;51.996;4.504;2023-08-06T03:41:59;4.20;;;4.20;;
71172;SDS011;58875;51.996;4.504;2023-08-06T03:44:25;4.57;;;4.57;;
71172;SDS011;58875;51.996;4.504;2023-08-06T03:46:52;5.52;;;5.52;;
71172;SDS011;58875;51.996;4.504;2023-08-06T03:49:17;6.05;;;6.05;;
71172;SDS011;58875;51.996;4.504;2023-08-06T03:51:43;6.87;;;6.87;;
71172;SDS011;58875;51.996;4.504;2023-08-06T03:54:08;7.09;;;7.09;;
71172;SDS011;58875;51.996;4.504;2023-08-06T03:56:34;7.37;;;7.37;;
71172;SDS011;58875;51.996;4.504;2023-08-06T03:58:59;7.11;;;7.11;;
71172;SDS011;58875;51.996;4.504;2023-08-06T04:01:25;6.35;;;6.35;;
71172;SDS011;58875;51.996;4.504;2023-08-06T04:03:50;6.62;;;6.62;;
71172;SDS011;58875;51.996;4.504;2023-08-06T04:06:16;6.05;;;6.05;;
71172;SDS011;58875;51.996;4.504;2023-08-06T04:08:41;5.08;;;5.08;;
71172;SDS011;58875;51.996;4.504;2023-08-06T04:11:07;5.14;;;5.14;;
71172;SDS011;58875;51.996;4.504;2023-08-06T04:13:33;5.13;;;5.13;;
71172;SDS011;58875;51.996;4.504;2023-08-06T04:16:02;4.55;;;4.55;;
71172;SDS011;58875;51.996;4.504;2023-08-06T04:18:28;4.45;;;4.45;;
71172;SDS011;58875;51.996;4.504;2023-08-06T04:20:54;4.17;;;4.17;;
71172;SDS011;58875;51.996;4.504;2023-08-06T04:23:20;4.14;;;4.14;;
71172;SDS011;58875;51.996;4.504;2023-08-06T04:25:46;4.15;;;4.15;;
71172;SDS011;58875;51.996;4.504;2023-08-06T04:28:11;4.03;;;4.03;;
71172;SDS011;58875;51.996;4.504;2023-08-06T04:30:37;4.08;;;4.08;;
71172;SDS011;58875;51.996;4.504;2023-08-06T04:33:03;4.14;;;4.14;;
71172;SDS011;58875;51.996;4.504;2023-08-06T04:35:29;4.37;;;4.37;;
71172;SDS011;58875;51.996;4.504;2023-08-06T04:37:54;4.17;;;4.17;;
71172;SDS011;58875;51.996;4.504;2023-08-06T04:40:20;4.24;;;4.24;;
71172;SDS011;58875;51.996;4.504;2023-08-06T04:42:45;4.31;;;4.31;;
71172;SDS011;58875;51.996;4.504;2023-08-06T04:45:11;4.24;;;4.24;;
71172;SDS011;58875;51.996;4.504;2023-08-06T04:47:36;4.40;;;4.40;;
71172;SDS011;58875;51.996;4.504;2023-08-06T04:50:02;4.50;;;4.50;;
71172;SDS011;58875;51.996;4.504;2023-08-06T04:52:27;4.31;;;4.31;;
71172;SDS011;58875;51.996;4.504;2023-08-06T04:54:56;4.60;;;4.60;;
71172;SDS011;58875;51.996;4.504;2023-08-06T04:57:21;5.05;;;5.05;;
71172;SDS011;58875;51.996;4.504;2023-08-06T04:59:47;4.99;;;4.99;;
71172;SDS011;58875;51.996;4.504;2023-08-06T05:02:12;4.96;;;4.96;;
71172;SDS011;58875;51.996;4.504;2023-08-06T05:04:38;4.93;;;4.92;;
71172;SDS011;58875;51.996;4.504;2023-08-06T05:07:04;4.98;;;4.98;;
71172;SDS011;58875;51.996;4.504;2023-08-06T05:09:30;5.12;;;5.12;;
71172;SDS011;58875;51.996;4.504;2023-08-06T05:11:56;5.08;;;5.08;;
71172;SDS011;58875;51.996;4.504;2023-08-06T05:14:21;5.50;;;5.50;;
71172;SDS011;58875;51.996;4.504;2023-08-06T05:16:47;5.45;;;5.45;;
71172;SDS011;58875;51.996;4.504;2023-08-06T05:19:13;5.41;;;5.41;;
71172;SDS011;58875;51.996;4.504;2023-08-06T05:21:38;5.42;;;5.42;;
71172;SDS011;58875;51.996;4.504;2023-08-06T05:24:04;5.12;;;5.12;;
71172;SDS011;58875;51.996;4.504;2023-08-06T05:26:29;5.40;;;5.40;;
71172;SDS011;58875;51.996;4.504;2023-08-06T05:28:55;5.24;;;5.24;;
71172;SDS011;58875;51.996;4.504;2023-08-06T05:31:20;4.71;;;4.71;;
71172;SDS011;58875;51.996;4.504;2023-08-06T05:33:46;5.00;;;5.00;;
71172;SDS011;58875;51.996;4.504;2023-08-06T05:36:11;5.07;;;5.07;;
71172;SDS011;58875;51.996;4.504;2023-08-06T05:38:37;4.98;;;4.98;;
71172;SDS011;58875;51.996;4.504;2023-08-06T05:41:02;4.67;;;4.67;;
71172;SDS011;58875;51.996;4.504;2023-08-06T05:43:28;4.73;;;4.73;;
71172;SDS011;58875;51.996;4.504;2023-08-06T05:45:53;4.37;;;4.37;;
71172;SDS011;58875;51.996;4.504;2023-08-06T05:48:19;4.07;;;4.07;;
71172;SDS011;58875;51.996;4.504;2023-08-06T05:50:44;3.72;;;3.72;;
71172;SDS011;58875;51.996;4.504;2023-08-06T05:53:10;3.81;;;3.81;;
71172;SDS011;58875;51.996;4.504;2023-08-06T05:55:35;3.91;;;3.91;;
71172;SDS011;58875;51.996;4.504;2023-08-06T05:58:01;3.46;;;3.46;;
71172;SDS011;58875;51.996;4.504;2023-08-06T06:00:26;3.17;;;3.16;;
71172;SDS011;58875;51.996;4.504;2023-08-06T06:02:52;3.44;;;3.44;;
71172;SDS011;58875;51.996;4.504;2023-08-06T06:05:17;3.29;;;3.28;;
71172;SDS011;58875;51.996;4.504;2023-08-06T06:07:43;2.91;;;2.87;;
71172;SDS011;58875;51.996;4.504;2023-08-06T06:10:08;2.94;;;2.92;;
71172;SDS011;58875;51.996;4.504;2023-08-06T06:12:34;2.63;;;2.60;;
71172;SDS011;58875;51.996;4.504;2023-08-06T06:15:00;2.44;;;2.42;;
71172;SDS011;58875;51.996;4.504;2023-08-06T06:17:26;2.44;;;2.43;;
71172;SDS011;58875;51.996;4.504;2023-08-06T06:19:52;2.56;;;2.56;;
71172;SDS011;58875;51.996;4.504;2023-08-06T06:22:18;2.60;;;2.59;;
71172;SDS011;58875;51.996;4.504;2023-08-06T06:24:43;2.63;;;2.63;;
71172;SDS011;58875;51.996;4.504;2023-08-06T06:27:09;2.28;;;2.28;;
71172;SDS011;58875;51.996;4.504;2023-08-06T06:29:34;2.08;;;2.08;;
71172;SDS011;58875;51.996;4.504;2023-08-06T06:32:00;1.93;;;1.93;;
71172;SDS011;58875;51.996;4.504;2023-08-06T06:34:25;1.98;;;1.98;;
71172;SDS011;58875;51.996;4.504;2023-08-06T06:36:51;1.71;;;1.70;;
71172;SDS011;58875;51.996;4.504;2023-08-06T06:39:17;1.74;;;1.74;;
71172;SDS011;58875;51.996;4.504;2023-08-06T06:41:43;1.84;;;1.83;;
71172;SDS011;58875;51.996;4.504;2023-08-06T06:44:09;1.71;;;1.71;;
71172;SDS011;58875;51.996;4.504;2023-08-06T06:46:35;1.91;;;1.90;;
71172;SDS011;58875;51.996;4.504;2023-08-06T06:49:01;1.81;;;1.78;;
71172;SDS011;58875;51.996;4.504;2023-08-06T06:51:26;1.82;;;1.78;;
71172;SDS011;58875;51.996;4.504;2023-08-06T06:53:52;1.86;;;1.82;;
71172;SDS011;58875;51.996;4.504;2023-08-06T06:56:17;1.97;;;1.92;;
71172;SDS011;58875;51.996;4.504;2023-08-06T06:58:43;2.31;;;2.23;;
71172;SDS011;58875;51.996;4.504;2023-08-06T07:01:08;2.17;;;2.10;;
71172;SDS011;58875;51.996;4.504;2023-08-06T07:03:36;2.20;;;2.13;;
71172;SDS011;58875;51.996;4.504;2023-08-06T07:06:02;2.34;;;2.28;;
71172;SDS011;58875;51.996;4.504;2023-08-06T07:08:29;2.28;;;2.21;;
71172;SDS011;58875;51.996;4.504;2023-08-06T07:11:04;2.40;;;2.32;;
71172;SDS011;58875;51.996;4.504;2023-08-06T07:13:31;2.48;;;2.41;;
71172;SDS011;58875;51.996;4.504;2023-08-06T07:15:56;2.43;;;2.37;;
71172;SDS011;58875;51.996;4.504;2023-08-06T07:18:22;2.63;;;2.56;;
71172;SDS011;58875;51.996;4.504;2023-08-06T07:20:52;2.75;;;2.68;;
71172;SDS011;58875;51.996;4.504;2023-08-06T07:23:22;2.72;;;2.69;;
71172;SDS011;58875;51.996;4.504;2023-08-06T07:25:49;2.62;;;2.59;;
71172;SDS011;58875;51.996;4.504;2023-08-06T07:28:17;2.62;;;2.62;;
71172;SDS011;58875;51.996;4.504;2023-08-06T07:30:44;2.73;;;2.73;;
71172;SDS011;58875;51.996;4.504;2023-08-06T07:33:10;2.71;;;2.71;;
71172;SDS011;58875;51.996;4.504;2023-08-06T07:35:37;3.00;;;2.98;;
71172;SDS011;58875;51.996;4.504;2023-08-06T07:38:03;2.80;;;2.75;;
71172;SDS011;58875;51.996;4.504;2023-08-06T07:40:28;2.62;;;2.58;;
71172;SDS011;58875;51.996;4.504;2023-08-06T07:42:54;2.54;;;2.50;;
71172;SDS011;58875;51.996;4.504;2023-08-06T07:45:20;2.57;;;2.53;;
71172;SDS011;58875;51.996;4.504;2023-08-06T07:47:46;2.66;;;2.62;;
71172;SDS011;58875;51.996;4.504;2023-08-06T07:50:12;2.57;;;2.56;;
71172;SDS011;58875;51.996;4.504;2023-08-06T07:52:38;2.61;;;2.60;;
71172;SDS011;58875;51.996;4.504;2023-08-06T07:55:04;2.55;;;2.53;;
71172;SDS011;58875;51.996;4.504;2023-08-06T07:57:33;2.81;;;2.76;;
71172;SDS011;58875;51.996;4.504;2023-08-06T08:00:02;2.75;;;2.70;;
71172;SDS011;58875;51.996;4.504;2023-08-06T08:02:28;2.60;;;2.53;;
71172;SDS011;58875;51.996;4.504;2023-08-06T08:04:55;2.58;;;2.54;;
71172;SDS011;58875;51.996;4.504;2023-08-06T08:07:20;2.83;;;2.80;;
71172;SDS011;58875;51.996;4.504;2023-08-06T08:09:46;2.69;;;2.66;;
71172;SDS011;58875;51.996;4.504;2023-08-06T08:12:13;2.41;;;2.39;;
71172;SDS011;58875;51.996;4.504;2023-08-06T08:14:39;2.34;;;2.32;;
71172;SDS011;58875;51.996;4.504;2023-08-06T08:17:04;2.52;;;2.49;;
71172;SDS011;58875;51.996;4.504;2023-08-06T08:19:31;2.43;;;2.42;;
71172;SDS011;58875;51.996;4.504;2023-08-06T08:21:57;2.25;;;2.25;;
71172;SDS011;58875;51.996;4.504;2023-08-06T08:24:23;2.34;;;2.34;;
71172;SDS011;58875;51.996;4.504;2023-08-06T08:26:51;2.31;;;2.31;;
71172;SDS011;58875;51.996;4.504;2023-08-06T08:29:17;2.56;;;2.56;;
71172;SDS011;58875;51.996;4.504;2023-08-06T08:31:44;2.43;;;2.43;;
71172;SDS011;58875;51.996;4.504;2023-08-06T08:34:10;2.46;;;2.44;;
71172;SDS011;58875;51.996;4.504;2023-08-06T08:36:35;2.40;;;2.38;;
71172;SDS011;58875;51.996;4.504;2023-08-06T08:39:01;2.60;;;2.57;;
71172;SDS011;58875;51.996;4.504;2023-08-06T08:41:28;2.58;;;2.57;;
71172;SDS011;58875;51.996;4.504;2023-08-06T08:43:55;2.52;;;2.51;;
71172;SDS011;58875;51.996;4.504;2023-08-06T08:46:23;2.65;;;2.63;;
71172;SDS011;58875;51.996;4.504;2023-08-06T08:48:52;2.52;;;2.50;;
71172;SDS011;58875;51.996;4.504;2023-08-06T08:51:19;2.37;;;2.36;;
71172;SDS011;58875;51.996;4.504;2023-08-06T08:53:45;2.30;;;2.29;;
71172;SDS011;58875;51.996;4.504;2023-08-06T08:56:14;2.49;;;2.48;;
71172;SDS011;58875;51.996;4.504;2023-08-06T08:58:41;2.39;;;2.38;;
71172;SDS011;58875;51.996;4.504;2023-08-06T09:01:07;2.09;;;2.09;;
71172;SDS011;58875;51.996;4.504;2023-08-06T09:03:34;2.07;;;2.05;;
71172;SDS011;58875;51.996;4.504;2023-08-06T09:06:01;2.19;;;2.17;;
71172;SDS011;58875;51.996;4.504;2023-08-06T09:08:30;2.06;;;2.04;;
71172;SDS011;58875;51.996;4.504;2023-08-06T09:11:01;2.37;;;2.34;;
71172;SDS011;58875;51.996;4.504;2023-08-06T09:13:29;2.06;;;2.03;;
71172;SDS011;58875;51.996;4.504;2023-08-06T09:15:55;1.98;;;1.96;;
71172;SDS011;58875;51.996;4.504;2023-08-06T09:18:26;1.96;;;1.95;;
71172;SDS011;58875;51.996;4.504;2023-08-06T09:20:55;1.96;;;1.96;;
71172;SDS011;58875;51.996;4.504;2023-08-06T09:23:27;1.88;;;1.88;;
71172;SDS011;58875;51.996;4.504;2023-08-06T09:25:58;2.03;;;2.03;;
71172;SDS011;58875;51.996;4.504;2023-08-06T09:28:24;1.67;;;1.66;;
71172;SDS011;58875;51.996;4.504;2023-08-06T09:30:50;1.72;;;1.71;;
71172;SDS011;58875;51.996;4.504;2023-08-06T09:33:19;1.80;;;1.79;;
71172;SDS011;58875;51.996;4.504;2023-08-06T09:35:47;1.86;;;1.85;;
71172;SDS011;58875;51.996;4.504;2023-08-06T09:38:13;1.79;;;1.78;;
71172;SDS011;58875;51.996;4.504;2023-08-06T09:40:39;1.63;;;1.63;;
71172;SDS011;58875;51.996;4.504;2023-08-06T09:43:05;1.68;;;1.68;;
71172;SDS011;58875;51.996;4.504;2023-08-06T09:45:33;1.78;;;1.78;;
71172;SDS011;58875;51.996;4.504;2023-08-06T09:48:03;1.90;;;1.90;;
71172;SDS011;58875;51.996;4.504;2023-08-06T09:50:31;1.76;;;1.76;;
71172;SDS011;58875;51.996;4.504;2023-08-06T09:52:58;1.90;;;1.90;;
71172;SDS011;58875;51.996;4.504;2023-08-06T09:55:25;1.88;;;1.87;;
71172;SDS011;58875;51.996;4.504;2023-08-06T09:57:52;1.71;;;1.71;;
71172;SDS011;58875;51.996;4.504;2023-08-06T10:00:18;1.74;;;1.72;;
71172;SDS011;58875;51.996;4.504;2023-08-06T10:02:45;1.66;;;1.65;;
71172;SDS011;58875;51.996;4.504;2023-08-06T10:05:11;1.53;;;1.53;;
71172;SDS011;58875;51.996;4.504;2023-08-06T10:07:37;1.44;;;1.44;;
71172;SDS011;58875;51.996;4.504;2023-08-06T10:10:05;1.43;;;1.42;;
71172;SDS011;58875;51.996;4.504;2023-08-06T10:12:32;1.54;;;1.53;;
71172;SDS011;58875;51.996;4.504;2023-08-06T10:15:01;1.48;;;1.47;;
71172;SDS011;58875;51.996;4.504;2023-08-06T10:17:31;2.48;;;2.46;;
71172;SDS011;58875;51.996;4.504;2023-08-06T10:20:00;3.69;;;3.68;;
71172;SDS011;58875;51.996;4.504;2023-08-06T10:22:26;2.06;;;2.06;;
71172;SDS011;58875;51.996;4.504;2023-08-06T10:24:53;1.62;;;1.62;;
71172;SDS011;58875;51.996;4.504;2023-08-06T10:27:27;1.42;;;1.42;;
71172;SDS011;58875;51.996;4.504;2023-08-06T10:32:52;1.38;;;1.38;;
71172;SDS011;58875;51.996;4.504;2023-08-06T10:35:34;1.59;;;1.59;;
71172;SDS011;58875;51.996;4.504;2023-08-06T10:38:10;1.60;;;1.60;;
71172;SDS011;58875;51.996;4.504;2023-08-06T10:40:39;1.41;;;1.41;;
71172;SDS011;58875;51.996;4.504;2023-08-06T10:43:06;1.40;;;1.40;;
71172;SDS011;58875;51.996;4.504;2023-08-06T10:45:34;1.84;;;1.84;;
71172;SDS011;58875;51.996;4.504;2023-08-06T10:48:01;1.75;;;1.75;;
71172;SDS011;58875;51.996;4.504;2023-08-06T10:50:27;1.75;;;1.75;;
71172;SDS011;58875;51.996;4.504;2023-08-06T10:52:53;1.81;;;1.81;;
71172;SDS011;58875;51.996;4.504;2023-08-06T10:55:23;1.79;;;1.78;;
71172;SDS011;58875;51.996;4.504;2023-08-06T10:57:50;1.80;;;1.80;;
71172;SDS011;58875;51.996;4.504;2023-08-06T11:00:16;1.68;;;1.68;;
71172;SDS011;58875;51.996;4.504;2023-08-06T11:02:41;1.81;;;1.81;;
71172;SDS011;58875;51.996;4.504;2023-08-06T11:05:09;1.77;;;1.76;;
71172;SDS011;58875;51.996;4.504;2023-08-06T11:07:36;1.79;;;1.79;;
71172;SDS011;58875;51.996;4.504;2023-08-06T11:10:03;1.54;;;1.54;;
71172;SDS011;58875;51.996;4.504;2023-08-06T11:12:33;1.37;;;1.37;;
71172;SDS011;58875;51.996;4.504;2023-08-06T11:14:59;1.38;;;1.38;;
71172;SDS011;58875;51.996;4.504;2023-08-06T11:17:29;1.47;;;1.47;;
71172;SDS011;58875;51.996;4.504;2023-08-06T11:19:58;1.61;;;1.61;;
71172;SDS011;58875;51.996;4.504;2023-08-06T11:22:24;1.54;;;1.54;;
71172;SDS011;58875;51.996;4.504;2023-08-06T11:24:50;1.43;;;1.41;;
71172;SDS011;58875;51.996;4.504;2023-08-06T11:27:16;1.53;;;1.52;;
71172;SDS011;58875;51.996;4.504;2023-08-06T11:29:43;1.40;;;1.39;;
71172;SDS011;58875;51.996;4.504;2023-08-06T11:32:10;1.37;;;1.36;;
71172;SDS011;58875;51.996;4.504;2023-08-06T11:34:37;1.30;;;1.29;;
71172;SDS011;58875;51.996;4.504;2023-08-06T11:37:04;1.45;;;1.45;;
71172;SDS011;58875;51.996;4.504;2023-08-06T11:39:34;1.45;;;1.45;;
71172;SDS011;58875;51.996;4.504;2023-08-06T11:42:02;1.24;;;1.24;;
71172;SDS011;58875;51.996;4.504;2023-08-06T11:44:31;1.96;;;1.96;;
71172;SDS011;58875;51.996;4.504;2023-08-06T11:46:59;6.47;;;6.47;;
71172;SDS011;58875;51.996;4.504;2023-08-06T11:52:19;1.32;;;1.32;;
71172;SDS011;58875;51.996;4.504;2023-08-06T11:55:05;1.44;;;1.44;;
71172;SDS011;58875;51.996;4.504;2023-08-06T11:57:39;1.35;;;1.35;;
71172;SDS011;58875;51.996;4.504;2023-08-06T12:00:09;1.18;;;1.18;;
71172;SDS011;58875;51.996;4.504;2023-08-06T12:02:39;1.25;;;1.25;;
71172;SDS011;58875;51.996;4.504;2023-08-06T12:07:37;0.93;;;0.93;;
71172;SDS011;58875;51.996;4.504;2023-08-06T12:10:04;0.97;;;0.97;;
71172;SDS011;58875;51.996;4.504;2023-08-06T12:12:30;1.02;;;1.02;;
71172;SDS011;58875;51.996;4.504;2023-08-06T12:14:56;1.62;;;1.62;;
71172;SDS011;58875;51.996;4.504;2023-08-06T12:17:22;6.18;;;6.18;;
71172;SDS011;58875;51.996;4.504;2023-08-06T12:19:48;13.24;;;13.24;;
71172;SDS011;58875;51.996;4.504;2023-08-06T12:22:14;1.68;;;1.68;;
71172;SDS011;58875;51.996;4.504;2023-08-06T12:24:41;1.20;;;1.20;;
71172;SDS011;58875;51.996;4.504;2023-08-06T12:27:07;1.20;;;1.20;;
71172;SDS011;58875;51.996;4.504;2023-08-06T12:29:32;1.08;;;1.08;;
71172;SDS011;58875;51.996;4.504;2023-08-06T12:31:58;0.99;;;0.99;;
71172;SDS011;58875;51.996;4.504;2023-08-06T12:34:23;0.98;;;0.98;;
71172;SDS011;58875;51.996;4.504;2023-08-06T12:36:49;0.97;;;0.97;;
71172;SDS011;58875;51.996;4.504;2023-08-06T12:39:14;1.07;;;1.05;;
71172;SDS011;58875;51.996;4.504;2023-08-06T12:41:40;1.15;;;1.13;;
71172;SDS011;58875;51.996;4.504;2023-08-06T12:44:05;1.13;;;1.11;;
71172;SDS011;58875;51.996;4.504;2023-08-06T12:46:31;0.96;;;0.94;;
71172;SDS011;58875;51.996;4.504;2023-08-06T12:48:56;0.94;;;0.92;;
71172;SDS011;58875;51.996;4.504;2023-08-06T12:51:23;0.95;;;0.93;;
71172;SDS011;58875;51.996;4.504;2023-08-06T12:53:50;1.00;;;0.98;;
71172;SDS011;58875;51.996;4.504;2023-08-06T12:56:15;0.90;;;0.89;;
71172;SDS011;58875;51.996;4.504;2023-08-06T12:58:41;0.78;;;0.78;;
71172;SDS011;58875;51.996;4.504;2023-08-06T13:01:07;0.88;;;0.87;;
71172;SDS011;58875;51.996;4.504;2023-08-06T13:03:33;0.82;;;0.80;;
71172;SDS011;58875;51.996;4.504;2023-08-06T13:05:58;0.84;;;0.82;;
71172;SDS011;58875;51.996;4.504;2023-08-06T13:08:24;0.80;;;0.78;;
71172;SDS011;58875;51.996;4.504;2023-08-06T13:10:50;0.78;;;0.76;;
71172;SDS011;58875;51.996;4.504;2023-08-06T13:13:15;0.77;;;0.76;;
71172;SDS011;58875;51.996;4.504;2023-08-06T13:15:41;0.69;;;0.69;;
71172;SDS011;58875;51.996;4.504;2023-08-06T13:18:06;0.70;;;0.70;;
71172;SDS011;58875;51.996;4.504;2023-08-06T13:20:32;0.96;;;0.95;;
71172;SDS011;58875;51.996;4.504;2023-08-06T13:23:00;0.90;;;0.89;;
71172;SDS011;58875;51.996;4.504;2023-08-06T13:25:26;1.03;;;1.01;;
71172;SDS011;58875;51.996;4.504;2023-08-06T13:27:53;1.01;;;0.97;;
71172;SDS011;58875;51.996;4.504;2023-08-06T13:30:20;0.88;;;0.85;;
71172;SDS011;58875;51.996;4.504;2023-08-06T13:32:45;1.01;;;0.98;;
71172;SDS011;58875;51.996;4.504;2023-08-06T13:35:11;1.36;;;1.29;;
71172;SDS011;58875;51.996;4.504;2023-08-06T13:37:37;1.73;;;1.57;;
71172;SDS011;58875;51.996;4.504;2023-08-06T13:40:03;1.97;;;1.71;;
71172;SDS011;58875;51.996;4.504;2023-08-06T13:42:28;2.39;;;1.95;;
71172;SDS011;58875;51.996;4.504;2023-08-06T13:44:54;2.27;;;1.74;;
71172;SDS011;58875;51.996;4.504;2023-08-06T13:47:27;2.72;;;2.02;;
71172;SDS011;58875;51.996;4.504;2023-08-06T13:49:53;2.54;;;1.82;;
71172;SDS011;58875;51.996;4.504;2023-08-06T13:52:18;2.77;;;1.95;;
71172;SDS011;58875;51.996;4.504;2023-08-06T13:54:44;2.98;;;2.16;;
71172;SDS011;58875;51.996;4.504;2023-08-06T13:57:09;1.97;;;1.44;;
71172;SDS011;58875;51.996;4.504;2023-08-06T13:59:34;2.08;;;1.51;;
71172;SDS011;58875;51.996;4.504;2023-08-06T14:02:00;1.89;;;1.38;;
71172;SDS011;58875;51.996;4.504;2023-08-06T14:04:25;2.22;;;1.62;;
71172;SDS011;58875;51.996;4.504;2023-08-06T14:06:51;2.58;;;1.87;;
71172;SDS011;58875;51.996;4.504;2023-08-06T14:09:16;2.27;;;1.64;;
71172;SDS011;58875;51.996;4.504;2023-08-06T14:11:44;2.23;;;1.60;;
71172;SDS011;58875;51.996;4.504;2023-08-06T14:14:10;2.96;;;2.11;;
71172;SDS011;58875;51.996;4.504;2023-08-06T14:16:36;2.67;;;1.87;;
71172;SDS011;58875;51.996;4.504;2023-08-06T14:19:02;2.70;;;1.89;;
71172;SDS011;58875;51.996;4.504;2023-08-06T14:21:28;2.16;;;1.52;;
71172;SDS011;58875;51.996;4.504;2023-08-06T14:23:53;2.27;;;1.59;;
71172;SDS011;58875;51.996;4.504;2023-08-06T14:26:19;1.95;;;1.38;;
71172;SDS011;58875;51.996;4.504;2023-08-06T14:28:45;2.30;;;1.62;;
71172;SDS011;58875;51.996;4.504;2023-08-06T14:31:11;2.43;;;1.71;;
71172;SDS011;58875;51.996;4.504;2023-08-06T14:33:36;2.75;;;1.92;;
71172;SDS011;58875;51.996;4.504;2023-08-06T14:36:02;2.97;;;2.07;;
71172;SDS011;58875;51.996;4.504;2023-08-06T14:38:28;3.03;;;2.14;;
71172;SDS011;58875;51.996;4.504;2023-08-06T14:40:53;2.76;;;1.96;;
71172;SDS011;58875;51.996;4.504;2023-08-06T14:43:19;2.59;;;1.83;;
71172;SDS011;58875;51.996;4.504;2023-08-06T14:45:44;2.71;;;1.91;;
71172;SDS011;58875;51.996;4.504;2023-08-06T14:48:10;2.95;;;2.05;;
71172;SDS011;58875;51.996;4.504;2023-08-06T14:50:36;2.73;;;1.87;;
71172;SDS011;58875;51.996;4.504;2023-08-06T14:53:03;3.08;;;2.09;;
71172;SDS011;58875;51.996;4.504;2023-08-06T14:55:29;3.61;;;2.43;;